Terminal Aerodrome Forecast
Issued by NWS Flagstaff, AZ

Home | Current Version | Previous Version | Text Only | Print | Product List | Glossary On
Versions: 1 2 3 4 5 6 7 8 9 10 11 12 13 14 15
000
FTUS45 KFGZ 241300 AAA
TAFFLG
TAF AMD
KFLG 241353Z 2414/2512 VRB04KT P6SM VCSH BKN080 OVC100
      TEMPO 2414/2416 -SHRA BKN060
     FM241800 21010KT P6SM SCT060 BKN090
      TEMPO 2420/2424 -TSRA BKN060CB
     FM250200 VRB06KT P6SM SCT100 BKN200=

USA.gov is the U.S. government's official web portal to all federal, state and local government web resources and services.